Chivilcoy, Argentina
Current Conditions -  °F | °C
As of 11:00 PM on Wednesday 17 Dec 2014 (Local Time) from SAEZ Reporting Station
Clear Clear  
Wind Chill: 64°   Ceiling: Unl
Heat Index: 64°   Visibility: 6mi
Dew Point: 57°   Wind: 2mph
Humidity: 77%   Direction: 110°ESE
Pressure: 29.91"   Gusts: NA
Location:  34.9°S, 60.04°W
Report Text: SAEZ 180200Z 11002KT CAVOK 18/14 Q1013
Loading
Personal Weather Stations






























Interactive Weather Map New forecast layout! Learn more

10-Day Weather Forecast

Advertisements
Track Severe Weather on mobile